createdAt,value
2022-08-05T00:07:21.846Z,0
2022-08-05T00:17:18.865Z,0
2022-08-05T00:27:10.337Z,1
2022-08-05T00:37:09.643Z,0
2022-08-05T00:47:07.373Z,0
2022-08-05T00:57:07.464Z,1
2022-08-05T01:07:07.553Z,1
2022-08-05T01:17:07.494Z,0
2022-08-05T01:27:17.987Z,0
2022-08-05T01:37:07.490Z,0
2022-08-05T01:47:07.628Z,0
2022-08-05T01:58:08.703Z,1
2022-08-05T02:07:07.595Z,0
2022-08-05T02:17:07.491Z,1
2022-08-05T02:27:09.076Z,1
2022-08-05T02:37:07.488Z,0
2022-08-05T02:47:07.584Z,1
2022-08-05T02:57:07.862Z,2
2022-08-05T03:07:07.587Z,1
2022-08-05T03:17:09.130Z,3
2022-08-05T03:27:07.602Z,4
2022-08-05T03:37:07.678Z,3
2022-08-05T03:47:07.580Z,0
2022-08-05T03:57:16.211Z,2
2022-08-05T04:07:07.600Z,3
2022-08-05T04:17:07.710Z,14
2022-08-05T04:27:07.612Z,13
2022-08-05T04:37:07.680Z,7
2022-08-05T04:47:08.723Z,5
2022-08-05T04:57:07.683Z,4
2022-08-05T05:07:09.329Z,8
2022-08-05T05:17:09.419Z,14
2022-08-05T05:27:07.753Z,3
2022-08-05T05:37:07.662Z,0
2022-08-05T05:47:13.361Z,4
2022-08-05T05:57:10.713Z,2
2022-08-05T06:07:07.774Z,3
2022-08-05T06:17:21.753Z,1
2022-08-05T06:27:13.117Z,4
2022-08-05T06:37:07.876Z,6
2022-08-05T06:47:10.265Z,15
2022-08-05T06:57:14.125Z,3
2022-08-05T07:07:08.123Z,8
2022-08-05T07:17:57.718Z,8
2022-08-05T07:27:08.772Z,7
2022-08-05T07:37:07.918Z,7
2022-08-05T07:47:07.967Z,9
2022-08-05T07:57:15.110Z,9
2022-08-05T08:07:07.791Z,15
2022-08-05T08:17:07.944Z,14
2022-08-05T08:27:07.991Z,9
2022-08-05T08:37:07.890Z,6
2022-08-05T08:47:21.985Z,6
2022-08-05T08:57:11.160Z,12
2022-08-05T09:07:10.623Z,10
2022-08-05T09:17:08.114Z,19
2022-08-05T09:27:08.021Z,5
2022-08-05T09:37:15.069Z,6
2022-08-05T09:47:10.316Z,12
2022-08-05T09:57:20.733Z,6
2022-08-05T10:07:19.777Z,10
2022-08-05T10:17:08.004Z,7
2022-08-05T10:27:08.176Z,15
2022-08-05T10:37:08.089Z,17
2022-08-05T10:47:10.116Z,22
2022-08-05T10:57:08.087Z,21
2022-08-05T11:07:08.180Z,5
2022-08-05T11:17:58.329Z,6
2022-08-05T11:27:08.119Z,17
2022-08-05T11:38:26.070Z,14
2022-08-05T11:47:11.938Z,4
2022-08-05T11:57:13.285Z,5
2022-08-05T12:07:08.115Z,22
2022-08-05T12:17:36.183Z,9
2022-08-05T12:27:09.611Z,20
2022-08-05T12:37:08.205Z,23
2022-08-05T12:47:12.390Z,21
2022-08-05T12:57:09.150Z,19
2022-08-05T13:07:10.475Z,17
2022-08-05T13:17:08.210Z,26
2022-08-05T13:27:11.019Z,23
2022-08-05T13:37:08.207Z,17
2022-08-05T13:47:08.886Z,14
2022-08-05T13:57:08.220Z,26
2022-08-05T14:07:11.958Z,10
2022-08-05T14:17:08.359Z,16
2022-08-05T14:27:17.914Z,19
2022-08-05T14:37:08.189Z,23
2022-08-05T14:47:08.853Z,19
2022-08-05T14:57:09.561Z,22
2022-08-05T15:07:08.304Z,34
2022-08-05T15:17:10.116Z,26
2022-08-05T15:27:08.988Z,16
2022-08-05T15:37:14.247Z,26
2022-08-05T15:47:08.333Z,20
2022-08-05T15:57:08.420Z,20
2022-08-05T16:07:10.690Z,30
2022-08-05T16:17:09.431Z,12
2022-08-05T16:27:08.369Z,19
2022-08-05T16:38:03.986Z,12
2022-08-05T16:47:24.807Z,15
2022-08-05T16:57:14.931Z,16
2022-08-05T17:07:11.293Z,11
2022-08-05T17:17:09.519Z,18
2022-08-05T17:27:08.539Z,10
2022-08-05T17:37:27.423Z,19
2022-08-05T17:47:08.590Z,11
2022-08-05T17:57:11.988Z,13
2022-08-05T18:07:09.604Z,6
2022-08-05T18:17:58.301Z,16
2022-08-05T18:27:12.780Z,7
2022-08-05T18:37:12.460Z,10
2022-08-05T18:47:08.511Z,8
2022-08-05T18:57:08.679Z,5
2022-08-05T19:07:08.592Z,7
2022-08-05T19:17:08.642Z,5
2022-08-05T19:27:08.517Z,11
2022-08-05T19:37:08.619Z,3
2022-08-05T19:47:09.655Z,5
2022-08-05T19:57:09.405Z,1
2022-08-05T20:07:10.223Z,0
2022-08-05T20:17:08.635Z,0
2022-08-05T20:27:11.516Z,0
2022-08-05T20:37:09.568Z,0
2022-08-05T20:47:08.735Z,0
2022-08-05T20:57:09.159Z,0
2022-08-05T21:07:08.896Z,0
2022-08-05T21:17:08.645Z,1
2022-08-05T21:27:08.742Z,0
2022-08-05T21:37:08.600Z,4
2022-08-05T21:47:17.395Z,9
2022-08-05T21:57:30.089Z,2
2022-08-05T22:07:08.781Z,2
2022-08-05T22:17:08.825Z,2
2022-08-05T22:27:10.854Z,5
2022-08-05T22:37:08.857Z,1
2022-08-05T22:47:08.691Z,0
2022-08-05T22:57:09.200Z,1
2022-08-05T23:07:08.742Z,0
2022-08-05T23:17:08.819Z,0
2022-08-05T23:27:08.715Z,3
2022-08-05T23:37:08.820Z,0
2022-08-05T23:47:14.295Z,0
2022-08-05T23:57:08.818Z,0
